Terminal Aerodrome Forecast
Issued by NWS

Home | Current Version | Previous Version | Text Only | Print | Product List | Glossary On
Versions: 1 2 3 4 5 6 7 8 9 10 11 12 13
634
FTUS44 KJAN 011130
TAFHKS
TAF
KHKS 011130Z 0112/0212 19010KT P6SM SCT025 BKN035
     FM011400 20011G21KT P6SM SCT015 BKN025
     FM011600 22013G26KT P6SM VCTS BKN015CB BKN025
     FM012100 28011G21KT P6SM BKN035
     FM020100 35010G24KT P6SM SCT250
     FM020500 36009KT P6SM FEW250=

USA.gov is the U.S. government's official web portal to all federal, state and local government web resources and services.